sensor_id;sensor_type;location;lat;lon;timestamp;temperature;humidity
2723;DHT22;1369;53.216;10.396;2023-04-25T00:01:37;9.60;99.90
2723;DHT22;1369;53.216;10.396;2023-04-25T00:04:03;9.60;99.90
2723;DHT22;1369;53.216;10.396;2023-04-25T00:06:29;9.60;99.90
2723;DHT22;1369;53.216;10.396;2023-04-25T00:08:55;9.60;99.90
2723;DHT22;1369;53.216;10.396;2023-04-25T00:11:22;9.60;99.90
2723;DHT22;1369;53.216;10.396;2023-04-25T00:13:47;9.60;99.90
2723;DHT22;1369;53.216;10.396;2023-04-25T00:16:13;9.60;99.90
2723;DHT22;1369;53.216;10.396;2023-04-25T00:18:42;9.60;99.90
2723;DHT22;1369;53.216;10.396;2023-04-25T00:21:07;9.60;99.90
2723;DHT22;1369;53.216;10.396;2023-04-25T00:23:33;9.50;99.90
2723;DHT22;1369;53.216;10.396;2023-04-25T00:26:00;9.60;99.90
2723;DHT22;1369;53.216;10.396;2023-04-25T00:28:26;9.60;99.90
2723;DHT22;1369;53.216;10.396;2023-04-25T00:30:51;9.60;99.90
2723;DHT22;1369;53.216;10.396;2023-04-25T00:33:17;9.60;99.90
2723;DHT22;1369;53.216;10.396;2023-04-25T00:35:42;9.60;99.90
2723;DHT22;1369;53.216;10.396;2023-04-25T00:38:08;9.60;99.90
2723;DHT22;1369;53.216;10.396;2023-04-25T00:40:33;9.60;99.90
2723;DHT22;1369;53.216;10.396;2023-04-25T00:42:59;9.60;99.90
2723;DHT22;1369;53.216;10.396;2023-04-25T00:45:28;9.60;99.90
2723;DHT22;1369;53.216;10.396;2023-04-25T00:47:55;9.60;99.90
2723;DHT22;1369;53.216;10.396;2023-04-25T00:50:21;9.60;99.90
2723;DHT22;1369;53.216;10.396;2023-04-25T00:52:47;9.60;99.90
2723;DHT22;1369;53.216;10.396;2023-04-25T00:55:12;9.50;99.90
2723;DHT22;1369;53.216;10.396;2023-04-25T00:57:39;9.50;99.90
2723;DHT22;1369;53.216;10.396;2023-04-25T01:00:06;9.50;99.90
2723;DHT22;1369;53.216;10.396;2023-04-25T01:02:33;9.50;99.90
2723;DHT22;1369;53.216;10.396;2023-04-25T01:04:59;9.40;99.90
2723;DHT22;1369;53.216;10.396;2023-04-25T01:07:25;9.50;99.90
2723;DHT22;1369;53.216;10.396;2023-04-25T01:09:54;9.50;99.90
2723;DHT22;1369;53.216;10.396;2023-04-25T01:12:20;9.50;99.90
2723;DHT22;1369;53.216;10.396;2023-04-25T01:14:46;9.50;99.90
2723;DHT22;1369;53.216;10.396;2023-04-25T01:17:11;9.40;99.90
2723;DHT22;1369;53.216;10.396;2023-04-25T01:19:37;9.40;99.90
2723;DHT22;1369;53.216;10.396;2023-04-25T01:22:03;9.30;99.90
2723;DHT22;1369;53.216;10.396;2023-04-25T01:24:31;9.30;99.90
2723;DHT22;1369;53.216;10.396;2023-04-25T01:26:58;9.30;99.90
2723;DHT22;1369;53.216;10.396;2023-04-25T01:29:24;9.30;99.90
2723;DHT22;1369;53.216;10.396;2023-04-25T01:31:51;9.30;99.90
2723;DHT22;1369;53.216;10.396;2023-04-25T01:34:18;9.20;99.90
2723;DHT22;1369;53.216;10.396;2023-04-25T01:36:44;9.20;99.90
2723;DHT22;1369;53.216;10.396;2023-04-25T01:39:10;9.20;99.90
2723;DHT22;1369;53.216;10.396;2023-04-25T01:41:36;9.10;99.90
2723;DHT22;1369;53.216;10.396;2023-04-25T01:44:02;9.10;99.90
2723;DHT22;1369;53.216;10.396;2023-04-25T01:46:28;9.10;99.90
2723;DHT22;1369;53.216;10.396;2023-04-25T01:48:54;9.10;99.90
2723;DHT22;1369;53.216;10.396;2023-04-25T01:51:20;9.10;99.90
2723;DHT22;1369;53.216;10.396;2023-04-25T01:53:45;9.10;99.90
2723;DHT22;1369;53.216;10.396;2023-04-25T01:56:11;9.10;99.90
2723;DHT22;1369;53.216;10.396;2023-04-25T01:58:36;9.10;99.90
2723;DHT22;1369;53.216;10.396;2023-04-25T02:01:02;9.10;99.90
2723;DHT22;1369;53.216;10.396;2023-04-25T02:03:28;9.10;99.90
2723;DHT22;1369;53.216;10.396;2023-04-25T02:05:54;9.00;99.90
2723;DHT22;1369;53.216;10.396;2023-04-25T02:08:19;9.00;99.90
2723;DHT22;1369;53.216;10.396;2023-04-25T02:10:45;8.90;99.90
2723;DHT22;1369;53.216;10.396;2023-04-25T02:13:10;8.90;99.90
2723;DHT22;1369;53.216;10.396;2023-04-25T02:15:36;8.90;99.90
2723;DHT22;1369;53.216;10.396;2023-04-25T02:18:01;8.80;99.90
2723;DHT22;1369;53.216;10.396;2023-04-25T02:20:29;8.80;99.90
2723;DHT22;1369;53.216;10.396;2023-04-25T02:22:55;8.80;99.90
2723;DHT22;1369;53.216;10.396;2023-04-25T02:25:21;8.80;99.90
2723;DHT22;1369;53.216;10.396;2023-04-25T02:27:49;8.80;99.90
2723;DHT22;1369;53.216;10.396;2023-04-25T02:30:16;8.80;99.90
2723;DHT22;1369;53.216;10.396;2023-04-25T02:32:42;8.80;99.90
2723;DHT22;1369;53.216;10.396;2023-04-25T02:35:08;8.80;99.90
2723;DHT22;1369;53.216;10.396;2023-04-25T02:37:34;8.70;99.90
2723;DHT22;1369;53.216;10.396;2023-04-25T02:40:01;8.70;99.90
2723;DHT22;1369;53.216;10.396;2023-04-25T02:42:27;8.70;99.90
2723;DHT22;1369;53.216;10.396;2023-04-25T02:44:52;8.70;99.90
2723;DHT22;1369;53.216;10.396;2023-04-25T02:47:18;8.70;99.90
2723;DHT22;1369;53.216;10.396;2023-04-25T02:49:44;8.70;99.90
2723;DHT22;1369;53.216;10.396;2023-04-25T02:52:10;8.60;99.90
2723;DHT22;1369;53.216;10.396;2023-04-25T02:54:36;8.60;99.90
2723;DHT22;1369;53.216;10.396;2023-04-25T02:57:02;8.60;99.90
2723;DHT22;1369;53.216;10.396;2023-04-25T02:59:28;8.50;99.90
2723;DHT22;1369;53.216;10.396;2023-04-25T03:01:53;8.50;99.90
2723;DHT22;1369;53.216;10.396;2023-04-25T03:04:19;8.50;99.90
2723;DHT22;1369;53.216;10.396;2023-04-25T03:06:44;8.40;99.90
2723;DHT22;1369;53.216;10.396;2023-04-25T03:09:10;8.40;99.90
2723;DHT22;1369;53.216;10.396;2023-04-25T03:11:38;8.30;99.90
2723;DHT22;1369;53.216;10.396;2023-04-25T03:14:03;8.30;99.90
2723;DHT22;1369;53.216;10.396;2023-04-25T03:16:29;8.20;99.90
2723;DHT22;1369;53.216;10.396;2023-04-25T03:18:54;8.10;99.90
2723;DHT22;1369;53.216;10.396;2023-04-25T03:21:20;8.10;99.90
2723;DHT22;1369;53.216;10.396;2023-04-25T03:23:45;8.00;99.90
2723;DHT22;1369;53.216;10.396;2023-04-25T03:26:11;8.10;99.90
2723;DHT22;1369;53.216;10.396;2023-04-25T03:28:36;8.10;99.90
2723;DHT22;1369;53.216;10.396;2023-04-25T03:31:02;8.10;99.90
2723;DHT22;1369;53.216;10.396;2023-04-25T03:33:28;8.10;99.90
2723;DHT22;1369;53.216;10.396;2023-04-25T03:35:53;8.10;99.90
2723;DHT22;1369;53.216;10.396;2023-04-25T03:38:19;8.10;99.90
2723;DHT22;1369;53.216;10.396;2023-04-25T03:40:44;8.10;99.90
2723;DHT22;1369;53.216;10.396;2023-04-25T03:43:10;8.10;99.90
2723;DHT22;1369;53.216;10.396;2023-04-25T03:45:36;8.10;99.90
2723;DHT22;1369;53.216;10.396;2023-04-25T03:48:04;8.10;99.90
2723;DHT22;1369;53.216;10.396;2023-04-25T03:50:30;8.20;99.90
2723;DHT22;1369;53.216;10.396;2023-04-25T03:52:55;8.10;99.90
2723;DHT22;1369;53.216;10.396;2023-04-25T03:55:21;8.10;99.90
2723;DHT22;1369;53.216;10.396;2023-04-25T03:57:46;8.10;99.90
2723;DHT22;1369;53.216;10.396;2023-04-25T04:00:12;8.10;99.90
2723;DHT22;1369;53.216;10.396;2023-04-25T04:02:38;8.10;99.90
2723;DHT22;1369;53.216;10.396;2023-04-25T04:05:04;8.00;99.90
2723;DHT22;1369;53.216;10.396;2023-04-25T04:07:30;7.90;99.90
2723;DHT22;1369;53.216;10.396;2023-04-25T04:09:58;7.80;99.90
2723;DHT22;1369;53.216;10.396;2023-04-25T04:12:24;7.70;99.90
2723;DHT22;1369;53.216;10.396;2023-04-25T04:14:49;7.60;99.90
2723;DHT22;1369;53.216;10.396;2023-04-25T04:17:15;7.60;99.90
2723;DHT22;1369;53.216;10.396;2023-04-25T04:19:40;7.50;99.90
2723;DHT22;1369;53.216;10.396;2023-04-25T04:22:06;7.50;99.90
2723;DHT22;1369;53.216;10.396;2023-04-25T04:24:31;7.50;99.90
2723;DHT22;1369;53.216;10.396;2023-04-25T04:26:58;7.50;99.90
2723;DHT22;1369;53.216;10.396;2023-04-25T04:29:24;7.40;99.90
2723;DHT22;1369;53.216;10.396;2023-04-25T04:31:51;7.40;99.90
2723;DHT22;1369;53.216;10.396;2023-04-25T04:34:18;7.40;99.90
2723;DHT22;1369;53.216;10.396;2023-04-25T04:36:44;7.40;99.90
2723;DHT22;1369;53.216;10.396;2023-04-25T04:39:11;7.30;99.90
2723;DHT22;1369;53.216;10.396;2023-04-25T04:41:37;7.30;99.90
2723;DHT22;1369;53.216;10.396;2023-04-25T04:44:03;7.40;99.90
2723;DHT22;1369;53.216;10.396;2023-04-25T04:46:29;7.40;99.90
2723;DHT22;1369;53.216;10.396;2023-04-25T04:48:55;7.40;99.90
2723;DHT22;1369;53.216;10.396;2023-04-25T04:51:21;7.40;99.90
2723;DHT22;1369;53.216;10.396;2023-04-25T04:53:47;7.40;99.90
2723;DHT22;1369;53.216;10.396;2023-04-25T04:56:12;7.40;99.90
2723;DHT22;1369;53.216;10.396;2023-04-25T04:58:38;7.50;99.90
2723;DHT22;1369;53.216;10.396;2023-04-25T05:01:03;7.50;99.90
2723;DHT22;1369;53.216;10.396;2023-04-25T05:03:29;7.60;99.90
2723;DHT22;1369;53.216;10.396;2023-04-25T05:05:54;7.60;99.90
2723;DHT22;1369;53.216;10.396;2023-04-25T05:08:20;7.60;99.90
2723;DHT22;1369;53.216;10.396;2023-04-25T05:10:45;7.60;99.90
2723;DHT22;1369;53.216;10.396;2023-04-25T05:13:11;7.70;99.90
2723;DHT22;1369;53.216;10.396;2023-04-25T05:15:37;7.70;99.90
2723;DHT22;1369;53.216;10.396;2023-04-25T05:18:02;7.70;99.90
2723;DHT22;1369;53.216;10.396;2023-04-25T05:20:28;7.80;99.90
2723;DHT22;1369;53.216;10.396;2023-04-25T05:22:54;7.90;99.90
2723;DHT22;1369;53.216;10.396;2023-04-25T05:25:19;8.30;99.90
2723;DHT22;1369;53.216;10.396;2023-04-25T05:27:45;8.50;99.90
2723;DHT22;1369;53.216;10.396;2023-04-25T05:30:10;8.70;99.90
2723;DHT22;1369;53.216;10.396;2023-04-25T05:32:36;8.90;99.90
2723;DHT22;1369;53.216;10.396;2023-04-25T05:35:02;9.00;99.90
2723;DHT22;1369;53.216;10.396;2023-04-25T05:37:28;9.00;99.90
2723;DHT22;1369;53.216;10.396;2023-04-25T05:39:55;8.90;99.90
2723;DHT22;1369;53.216;10.396;2023-04-25T05:42:21;8.90;99.90
2723;DHT22;1369;53.216;10.396;2023-04-25T05:44:47;8.90;99.90
2723;DHT22;1369;53.216;10.396;2023-04-25T05:47:12;9.40;99.90
2723;DHT22;1369;53.216;10.396;2023-04-25T05:49:38;9.80;99.90
2723;DHT22;1369;53.216;10.396;2023-04-25T05:52:03;9.90;99.90
2723;DHT22;1369;53.216;10.396;2023-04-25T05:54:29;10.00;99.90
2723;DHT22;1369;53.216;10.396;2023-04-25T05:56:56;10.10;99.90
2723;DHT22;1369;53.216;10.396;2023-04-25T05:59:22;10.10;99.90
2723;DHT22;1369;53.216;10.396;2023-04-25T06:01:47;10.20;99.90
2723;DHT22;1369;53.216;10.396;2023-04-25T06:04:13;10.30;99.90
2723;DHT22;1369;53.216;10.396;2023-04-25T06:06:39;10.20;99.90
2723;DHT22;1369;53.216;10.396;2023-04-25T06:09:05;10.10;99.90
2723;DHT22;1369;53.216;10.396;2023-04-25T06:11:31;10.00;99.90
2723;DHT22;1369;53.216;10.396;2023-04-25T06:13:57;9.80;99.90
2723;DHT22;1369;53.216;10.396;2023-04-25T06:16:22;9.80;99.90
2723;DHT22;1369;53.216;10.396;2023-04-25T06:18:48;9.70;99.90
2723;DHT22;1369;53.216;10.396;2023-04-25T06:21:13;9.70;99.90
2723;DHT22;1369;53.216;10.396;2023-04-25T06:23:39;9.60;99.90
2723;DHT22;1369;53.216;10.396;2023-04-25T06:26:04;9.60;99.90
2723;DHT22;1369;53.216;10.396;2023-04-25T06:28:30;9.60;99.90
2723;DHT22;1369;53.216;10.396;2023-04-25T06:30:55;9.60;99.90
2723;DHT22;1369;53.216;10.396;2023-04-25T06:33:20;9.60;99.90
2723;DHT22;1369;53.216;10.396;2023-04-25T06:35:47;9.60;99.90
2723;DHT22;1369;53.216;10.396;2023-04-25T06:38:12;9.90;99.90
2723;DHT22;1369;53.216;10.396;2023-04-25T06:40:38;10.10;99.90
2723;DHT22;1369;53.216;10.396;2023-04-25T06:43:04;10.30;99.90
2723;DHT22;1369;53.216;10.396;2023-04-25T06:45:30;10.40;99.90
2723;DHT22;1369;53.216;10.396;2023-04-25T06:47:55;10.40;99.90
2723;DHT22;1369;53.216;10.396;2023-04-25T06:50:21;10.50;99.90
2723;DHT22;1369;53.216;10.396;2023-04-25T06:52:46;10.40;99.90
2723;DHT22;1369;53.216;10.396;2023-04-25T06:55:12;10.30;99.90
2723;DHT22;1369;53.216;10.396;2023-04-25T06:57:37;10.30;99.90
2723;DHT22;1369;53.216;10.396;2023-04-25T07:00:04;10.40;99.90
2723;DHT22;1369;53.216;10.396;2023-04-25T07:02:31;10.50;99.90
2723;DHT22;1369;53.216;10.396;2023-04-25T07:04:56;10.60;99.90
2723;DHT22;1369;53.216;10.396;2023-04-25T07:07:25;10.70;99.90
2723;DHT22;1369;53.216;10.396;2023-04-25T07:09:50;10.80;99.90
2723;DHT22;1369;53.216;10.396;2023-04-25T07:12:16;10.80;99.90
2723;DHT22;1369;53.216;10.396;2023-04-25T07:14:41;10.80;99.90
2723;DHT22;1369;53.216;10.396;2023-04-25T07:17:07;10.80;99.90
2723;DHT22;1369;53.216;10.396;2023-04-25T07:19:33;10.70;99.90
2723;DHT22;1369;53.216;10.396;2023-04-25T07:21:58;10.70;99.90
2723;DHT22;1369;53.216;10.396;2023-04-25T07:24:24;10.60;99.90
2723;DHT22;1369;53.216;10.396;2023-04-25T07:26:49;10.50;99.90
2723;DHT22;1369;53.216;10.396;2023-04-25T07:29:15;10.50;99.90
2723;DHT22;1369;53.216;10.396;2023-04-25T07:31:40;10.40;99.90
2723;DHT22;1369;53.216;10.396;2023-04-25T07:34:06;10.50;99.90
2723;DHT22;1369;53.216;10.396;2023-04-25T07:36:32;10.50;99.90
2723;DHT22;1369;53.216;10.396;2023-04-25T07:38:58;10.50;99.90
2723;DHT22;1369;53.216;10.396;2023-04-25T07:41:23;10.60;99.90
2723;DHT22;1369;53.216;10.396;2023-04-25T07:43:49;10.70;99.90
2723;DHT22;1369;53.216;10.396;2023-04-25T07:46:14;10.90;99.90
2723;DHT22;1369;53.216;10.396;2023-04-25T07:48:40;11.30;99.90
2723;DHT22;1369;53.216;10.396;2023-04-25T07:51:05;12.30;99.90
2723;DHT22;1369;53.216;10.396;2023-04-25T07:53:32;12.80;99.90
2723;DHT22;1369;53.216;10.396;2023-04-25T07:56:00;13.20;99.90
2723;DHT22;1369;53.216;10.396;2023-04-25T07:58:25;13.20;99.90
2723;DHT22;1369;53.216;10.396;2023-04-25T08:00:51;13.00;99.90
2723;DHT22;1369;53.216;10.396;2023-04-25T08:03:16;12.60;99.90
2723;DHT22;1369;53.216;10.396;2023-04-25T08:05:42;12.20;99.90
2723;DHT22;1369;53.216;10.396;2023-04-25T08:08:07;11.90;99.90
2723;DHT22;1369;53.216;10.396;2023-04-25T08:10:33;11.60;99.90
2723;DHT22;1369;53.216;10.396;2023-04-25T08:12:59;11.50;99.90
2723;DHT22;1369;53.216;10.396;2023-04-25T08:15:25;11.60;99.90
2723;DHT22;1369;53.216;10.396;2023-04-25T08:17:50;11.80;99.90
2723;DHT22;1369;53.216;10.396;2023-04-25T08:20:16;12.60;99.90
2723;DHT22;1369;53.216;10.396;2023-04-25T08:22:42;13.30;99.90
2723;DHT22;1369;53.216;10.396;2023-04-25T08:25:08;13.60;99.90
2723;DHT22;1369;53.216;10.396;2023-04-25T08:27:36;13.60;99.90
2723;DHT22;1369;53.216;10.396;2023-04-25T08:30:03;13.40;99.90
2723;DHT22;1369;53.216;10.396;2023-04-25T08:32:28;13.20;99.90
2723;DHT22;1369;53.216;10.396;2023-04-25T08:34:54;13.30;99.90
2723;DHT22;1369;53.216;10.396;2023-04-25T08:37:20;13.40;99.90
2723;DHT22;1369;53.216;10.396;2023-04-25T08:39:46;13.60;99.90
2723;DHT22;1369;53.216;10.396;2023-04-25T08:42:14;13.90;99.90
2723;DHT22;1369;53.216;10.396;2023-04-25T08:44:40;14.20;99.90
2723;DHT22;1369;53.216;10.396;2023-04-25T08:47:06;14.30;99.90
2723;DHT22;1369;53.216;10.396;2023-04-25T08:49:32;14.40;99.90
2723;DHT22;1369;53.216;10.396;2023-04-25T08:52:03;14.40;99.90
2723;DHT22;1369;53.216;10.396;2023-04-25T08:54:31;14.30;99.90
2723;DHT22;1369;53.216;10.396;2023-04-25T08:57:00;14.50;99.90
2723;DHT22;1369;53.216;10.396;2023-04-25T08:59:27;14.80;99.90
2723;DHT22;1369;53.216;10.396;2023-04-25T09:01:53;14.90;99.90
2723;DHT22;1369;53.216;10.396;2023-04-25T09:04:19;15.30;99.90
2723;DHT22;1369;53.216;10.396;2023-04-25T09:06:46;15.80;99.90
2723;DHT22;1369;53.216;10.396;2023-04-25T09:09:11;16.50;99.90
2723;DHT22;1369;53.216;10.396;2023-04-25T09:11:37;17.00;99.90
2723;DHT22;1369;53.216;10.396;2023-04-25T09:14:20;17.10;99.90
2723;DHT22;1369;53.216;10.396;2023-04-25T09:16:59;16.70;99.90
2723;DHT22;1369;53.216;10.396;2023-04-25T09:19:28;15.90;99.90
2723;DHT22;1369;53.216;10.396;2023-04-25T09:21:54;15.20;99.90
2723;DHT22;1369;53.216;10.396;2023-04-25T09:26:56;14.10;99.90
2723;DHT22;1369;53.216;10.396;2023-04-25T09:29:31;13.70;99.90
2723;DHT22;1369;53.216;10.396;2023-04-25T09:32:17;13.40;99.90
2723;DHT22;1369;53.216;10.396;2023-04-25T09:34:48;13.10;99.90
2723;DHT22;1369;53.216;10.396;2023-04-25T09:37:19;13.00;99.90
2723;DHT22;1369;53.216;10.396;2023-04-25T09:39:46;13.10;99.90
2723;DHT22;1369;53.216;10.396;2023-04-25T09:42:14;13.30;99.90
2723;DHT22;1369;53.216;10.396;2023-04-25T09:44:46;13.40;99.90
2723;DHT22;1369;53.216;10.396;2023-04-25T09:47:13;13.50;99.90
2723;DHT22;1369;53.216;10.396;2023-04-25T09:49:41;13.70;99.90
2723;DHT22;1369;53.216;10.396;2023-04-25T09:52:07;13.80;99.90
2723;DHT22;1369;53.216;10.396;2023-04-25T09:54:33;14.00;99.90
2723;DHT22;1369;53.216;10.396;2023-04-25T09:57:22;14.00;99.90
2723;DHT22;1369;53.216;10.396;2023-04-25T09:59:49;14.10;99.90
2723;DHT22;1369;53.216;10.396;2023-04-25T10:02:20;14.30;99.90
2723;DHT22;1369;53.216;10.396;2023-04-25T10:04:50;14.50;99.90
2723;DHT22;1369;53.216;10.396;2023-04-25T10:07:19;14.30;99.90
2723;DHT22;1369;53.216;10.396;2023-04-25T10:09:48;14.30;99.90
2723;DHT22;1369;53.216;10.396;2023-04-25T10:12:16;13.90;99.90
2723;DHT22;1369;53.216;10.396;2023-04-25T10:14:42;13.50;99.90
2723;DHT22;1369;53.216;10.396;2023-04-25T10:17:10;13.10;99.90
2723;DHT22;1369;53.216;10.396;2023-04-25T10:19:36;12.50;99.90
2723;DHT22;1369;53.216;10.396;2023-04-25T10:22:13;12.10;99.90
2723;DHT22;1369;53.216;10.396;2023-04-25T10:24:40;11.90;99.90
2723;DHT22;1369;53.216;10.396;2023-04-25T10:27:07;12.00;99.90
2723;DHT22;1369;53.216;10.396;2023-04-25T10:29:32;12.00;99.90
2723;DHT22;1369;53.216;10.396;2023-04-25T10:31:58;12.20;99.90
2723;DHT22;1369;53.216;10.396;2023-04-25T10:34:37;12.50;99.90
2723;DHT22;1369;53.216;10.396;2023-04-25T10:37:04;12.70;99.90
2723;DHT22;1369;53.216;10.396;2023-04-25T10:39:29;12.50;99.90
2723;DHT22;1369;53.216;10.396;2023-04-25T10:41:58;12.30;99.90
2723;DHT22;1369;53.216;10.396;2023-04-25T10:44:28;12.10;99.90
2723;DHT22;1369;53.216;10.396;2023-04-25T10:46:58;12.10;99.90
2723;DHT22;1369;53.216;10.396;2023-04-25T10:49:32;12.10;99.90
2723;DHT22;1369;53.216;10.396;2023-04-25T10:52:39;12.40;99.90
2723;DHT22;1369;53.216;10.396;2023-04-25T10:55:06;12.90;99.90
2723;DHT22;1369;53.216;10.396;2023-04-25T10:57:42;13.20;99.90
2723;DHT22;1369;53.216;10.396;2023-04-25T11:00:14;13.40;99.90
2723;DHT22;1369;53.216;10.396;2023-04-25T11:02:42;13.70;99.90
2723;DHT22;1369;53.216;10.396;2023-04-25T11:05:09;13.90;99.90
2723;DHT22;1369;53.216;10.396;2023-04-25T11:07:50;14.20;99.90
2723;DHT22;1369;53.216;10.396;2023-04-25T11:10:17;14.30;99.90
2723;DHT22;1369;53.216;10.396;2023-04-25T11:12:44;14.40;99.90
2723;DHT22;1369;53.216;10.396;2023-04-25T11:15:09;14.40;99.90
2723;DHT22;1369;53.216;10.396;2023-04-25T11:17:35;14.40;99.90
2723;DHT22;1369;53.216;10.396;2023-04-25T11:20:01;14.70;99.90
2723;DHT22;1369;53.216;10.396;2023-04-25T11:22:31;15.00;99.90
2723;DHT22;1369;53.216;10.396;2023-04-25T11:24:57;15.20;99.90
2723;DHT22;1369;53.216;10.396;2023-04-25T11:27:22;15.40;99.90
2723;DHT22;1369;53.216;10.396;2023-04-25T11:29:50;15.50;99.90
2723;DHT22;1369;53.216;10.396;2023-04-25T11:32:17;15.50;99.90
2723;DHT22;1369;53.216;10.396;2023-04-25T11:34:44;15.50;99.90
2723;DHT22;1369;53.216;10.396;2023-04-25T11:37:11;15.30;99.90
2723;DHT22;1369;53.216;10.396;2023-04-25T11:39:43;15.00;99.90
2723;DHT22;1369;53.216;10.396;2023-04-25T11:42:09;14.50;99.90
2723;DHT22;1369;53.216;10.396;2023-04-25T11:44:35;14.00;99.90
2723;DHT22;1369;53.216;10.396;2023-04-25T11:47:01;13.20;99.90
2723;DHT22;1369;53.216;10.396;2023-04-25T11:49:30;12.80;99.90
2723;DHT22;1369;53.216;10.396;2023-04-25T11:51:56;12.40;99.90
2723;DHT22;1369;53.216;10.396;2023-04-25T11:54:22;12.50;99.90
2723;DHT22;1369;53.216;10.396;2023-04-25T11:56:48;12.70;99.90
2723;DHT22;1369;53.216;10.396;2023-04-25T11:59:14;12.70;99.90
2723;DHT22;1369;53.216;10.396;2023-04-25T12:01:41;12.80;99.90
2723;DHT22;1369;53.216;10.396;2023-04-25T12:04:20;12.90;99.90
2723;DHT22;1369;53.216;10.396;2023-04-25T12:06:48;13.10;99.90
2723;DHT22;1369;53.216;10.396;2023-04-25T12:09:15;13.20;99.90
2723;DHT22;1369;53.216;10.396;2023-04-25T12:11:47;13.10;99.90
2723;DHT22;1369;53.216;10.396;2023-04-25T12:14:22;13.00;99.90
2723;DHT22;1369;53.216;10.396;2023-04-25T12:16:49;13.00;99.90
2723;DHT22;1369;53.216;10.396;2023-04-25T12:19:16;13.10;99.90
2723;DHT22;1369;53.216;10.396;2023-04-25T12:21:42;13.20;99.90
2723;DHT22;1369;53.216;10.396;2023-04-25T12:24:16;13.30;99.90
2723;DHT22;1369;53.216;10.396;2023-04-25T12:26:53;13.50;99.90
2723;DHT22;1369;53.216;10.396;2023-04-25T12:29:23;13.50;99.90
2723;DHT22;1369;53.216;10.396;2023-04-25T12:31:51;13.50;99.90
2723;DHT22;1369;53.216;10.396;2023-04-25T12:34:18;13.70;99.90
2723;DHT22;1369;53.216;10.396;2023-04-25T12:36:43;13.90;99.90
2723;DHT22;1369;53.216;10.396;2023-04-25T12:39:17;14.30;99.90
2723;DHT22;1369;53.216;10.396;2023-04-25T12:41:44;14.60;99.90
2723;DHT22;1369;53.216;10.396;2023-04-25T12:44:09;15.00;99.90
2723;DHT22;1369;53.216;10.396;2023-04-25T12:46:36;15.30;99.90
2723;DHT22;1369;53.216;10.396;2023-04-25T12:49:01;15.50;99.90
2723;DHT22;1369;53.216;10.396;2023-04-25T12:51:28;15.70;99.90
2723;DHT22;1369;53.216;10.396;2023-04-25T12:53:54;15.60;99.90
2723;DHT22;1369;53.216;10.396;2023-04-25T12:56:20;15.10;99.90
2723;DHT22;1369;53.216;10.396;2023-04-25T12:58:45;14.70;99.90
2723;DHT22;1369;53.216;10.396;2023-04-25T13:01:11;14.30;99.90
2723;DHT22;1369;53.216;10.396;2023-04-25T13:03:39;13.80;99.90
2723;DHT22;1369;53.216;10.396;2023-04-25T13:06:05;13.60;99.90
2723;DHT22;1369;53.216;10.396;2023-04-25T13:08:30;13.70;99.90
2723;DHT22;1369;53.216;10.396;2023-04-25T13:10:56;14.10;99.90
2723;DHT22;1369;53.216;10.396;2023-04-25T13:13:21;14.40;99.90
2723;DHT22;1369;53.216;10.396;2023-04-25T13:15:47;14.40;99.90
2723;DHT22;1369;53.216;10.396;2023-04-25T13:18:13;14.30;99.90
2723;DHT22;1369;53.216;10.396;2023-04-25T13:20:38;14.20;99.90
2723;DHT22;1369;53.216;10.396;2023-04-25T13:23:04;14.10;99.90
2723;DHT22;1369;53.216;10.396;2023-04-25T13:25:29;13.90;99.90
2723;DHT22;1369;53.216;10.396;2023-04-25T13:27:55;13.80;99.90
2723;DHT22;1369;53.216;10.396;2023-04-25T13:30:20;13.50;99.90
2723;DHT22;1369;53.216;10.396;2023-04-25T13:32:46;13.40;99.90
2723;DHT22;1369;53.216;10.396;2023-04-25T13:35:13;13.50;99.90
2723;DHT22;1369;53.216;10.396;2023-04-25T13:37:39;13.40;99.90
2723;DHT22;1369;53.216;10.396;2023-04-25T13:40:07;13.40;99.90
2723;DHT22;1369;53.216;10.396;2023-04-25T13:42:35;13.50;99.90
2723;DHT22;1369;53.216;10.396;2023-04-25T13:45:01;13.60;99.90
2723;DHT22;1369;53.216;10.396;2023-04-25T13:47:27;13.60;99.90
2723;DHT22;1369;53.216;10.396;2023-04-25T13:49:52;13.50;99.90
2723;DHT22;1369;53.216;10.396;2023-04-25T13:52:18;13.30;99.90
2723;DHT22;1369;53.216;10.396;2023-04-25T13:54:44;13.30;99.90
2723;DHT22;1369;53.216;10.396;2023-04-25T13:57:09;13.40;99.90
2723;DHT22;1369;53.216;10.396;2023-04-25T13:59:36;13.50;99.90
2723;DHT22;1369;53.216;10.396;2023-04-25T14:02:02;13.50;99.90
2723;DHT22;1369;53.216;10.396;2023-04-25T14:04:27;13.50;99.90
2723;DHT22;1369;53.216;10.396;2023-04-25T14:06:53;13.50;99.90
2723;DHT22;1369;53.216;10.396;2023-04-25T14:09:19;13.50;99.90
2723;DHT22;1369;53.216;10.396;2023-04-25T14:11:47;13.50;99.90
2723;DHT22;1369;53.216;10.396;2023-04-25T14:14:13;13.50;99.90
2723;DHT22;1369;53.216;10.396;2023-04-25T14:16:41;13.50;99.90
2723;DHT22;1369;53.216;10.396;2023-04-25T14:19:06;13.50;99.90
2723;DHT22;1369;53.216;10.396;2023-04-25T14:21:32;13.50;99.90
2723;DHT22;1369;53.216;10.396;2023-04-25T14:23:58;13.70;99.90
2723;DHT22;1369;53.216;10.396;2023-04-25T14:26:23;13.50;99.90
2723;DHT22;1369;53.216;10.396;2023-04-25T14:28:51;13.80;99.90
2723;DHT22;1369;53.216;10.396;2023-04-25T14:31:16;13.80;99.90
2723;DHT22;1369;53.216;10.396;2023-04-25T14:33:42;13.70;99.90
2723;DHT22;1369;53.216;10.396;2023-04-25T14:36:08;13.50;99.90
2723;DHT22;1369;53.216;10.396;2023-04-25T14:38:34;13.10;99.90
2723;DHT22;1369;53.216;10.396;2023-04-25T14:40:59;12.60;99.90
2723;DHT22;1369;53.216;10.396;2023-04-25T14:43:25;12.70;99.90
2723;DHT22;1369;53.216;10.396;2023-04-25T14:45:51;13.00;99.90
2723;DHT22;1369;53.216;10.396;2023-04-25T14:48:17;13.10;99.90
2723;DHT22;1369;53.216;10.396;2023-04-25T14:50:44;13.00;99.90
2723;DHT22;1369;53.216;10.396;2023-04-25T14:53:10;12.90;99.90
2723;DHT22;1369;53.216;10.396;2023-04-25T14:55:36;13.00;99.90
2723;DHT22;1369;53.216;10.396;2023-04-25T14:58:01;13.20;99.90
2723;DHT22;1369;53.216;10.396;2023-04-25T15:00:27;13.30;99.90
2723;DHT22;1369;53.216;10.396;2023-04-25T15:02:57;13.40;99.90
2723;DHT22;1369;53.216;10.396;2023-04-25T15:05:23;13.50;99.90
2723;DHT22;1369;53.216;10.396;2023-04-25T15:07:48;13.50;99.90
2723;DHT22;1369;53.216;10.396;2023-04-25T15:10:14;13.40;99.90
2723;DHT22;1369;53.216;10.396;2023-04-25T15:12:42;13.30;99.90
2723;DHT22;1369;53.216;10.396;2023-04-25T15:15:08;13.00;99.90
2723;DHT22;1369;53.216;10.396;2023-04-25T15:17:41;12.70;99.90
2723;DHT22;1369;53.216;10.396;2023-04-25T15:20:11;12.50;99.90
2723;DHT22;1369;53.216;10.396;2023-04-25T15:22:42;12.40;99.90
2723;DHT22;1369;53.216;10.396;2023-04-25T15:25:09;12.30;99.90
2723;DHT22;1369;53.216;10.396;2023-04-25T15:27:35;12.10;99.90
2723;DHT22;1369;53.216;10.396;2023-04-25T15:30:13;12.10;99.90
2723;DHT22;1369;53.216;10.396;2023-04-25T15:32:41;12.30;99.90
2723;DHT22;1369;53.216;10.396;2023-04-25T15:35:07;12.60;99.90
2723;DHT22;1369;53.216;10.396;2023-04-25T15:37:33;12.70;99.90
2723;DHT22;1369;53.216;10.396;2023-04-25T15:42:26;12.80;99.90
2723;DHT22;1369;53.216;10.396;2023-04-25T15:44:52;12.70;99.90
2723;DHT22;1369;53.216;10.396;2023-04-25T15:47:17;12.60;99.90
2723;DHT22;1369;53.216;10.396;2023-04-25T15:49:43;12.30;99.90
2723;DHT22;1369;53.216;10.396;2023-04-25T15:52:08;12.30;99.90
2723;DHT22;1369;53.216;10.396;2023-04-25T15:54:34;12.20;99.90